sensor_id;sensor_type;location;lat;lon;timestamp;temperature;humidity
21047;DHT22;10682;50.874;3.656;2024-02-21T00:02:23;9.60;99.90
21047;DHT22;10682;50.874;3.656;2024-02-21T00:04:51;9.60;99.90
21047;DHT22;10682;50.874;3.656;2024-02-21T00:07:19;9.50;99.90
21047;DHT22;10682;50.874;3.656;2024-02-21T00:09:47;9.50;99.90
21047;DHT22;10682;50.874;3.656;2024-02-21T00:12:14;9.50;99.90
21047;DHT22;10682;50.874;3.656;2024-02-21T00:14:41;9.40;99.90
21047;DHT22;10682;50.874;3.656;2024-02-21T00:17:08;9.40;99.90
21047;DHT22;10682;50.874;3.656;2024-02-21T00:19:36;9.50;99.90
21047;DHT22;10682;50.874;3.656;2024-02-21T00:22:04;9.50;99.90
21047;DHT22;10682;50.874;3.656;2024-02-21T00:24:31;9.50;99.90
21047;DHT22;10682;50.874;3.656;2024-02-21T00:26:59;9.50;99.90
21047;DHT22;10682;50.874;3.656;2024-02-21T00:29:26;9.40;99.90
21047;DHT22;10682;50.874;3.656;2024-02-21T00:31:54;9.50;99.90
21047;DHT22;10682;50.874;3.656;2024-02-21T00:34:21;9.50;99.90
21047;DHT22;10682;50.874;3.656;2024-02-21T00:36:49;9.50;99.90
21047;DHT22;10682;50.874;3.656;2024-02-21T00:39:17;9.50;99.90
21047;DHT22;10682;50.874;3.656;2024-02-21T00:41:44;9.40;99.90
21047;DHT22;10682;50.874;3.656;2024-02-21T00:44:11;9.40;99.90
21047;DHT22;10682;50.874;3.656;2024-02-21T00:46:38;9.30;99.90
21047;DHT22;10682;50.874;3.656;2024-02-21T00:49:06;9.30;99.90
21047;DHT22;10682;50.874;3.656;2024-02-21T00:51:33;9.30;99.90
21047;DHT22;10682;50.874;3.656;2024-02-21T00:54:01;9.20;99.90
21047;DHT22;10682;50.874;3.656;2024-02-21T00:56:28;9.10;99.90
21047;DHT22;10682;50.874;3.656;2024-02-21T00:58:56;9.10;99.90
21047;DHT22;10682;50.874;3.656;2024-02-21T01:01:34;9.00;99.90
21047;DHT22;10682;50.874;3.656;2024-02-21T01:04:01;9.00;99.90
21047;DHT22;10682;50.874;3.656;2024-02-21T01:06:28;9.00;99.90
21047;DHT22;10682;50.874;3.656;2024-02-21T01:08:56;9.00;99.90
21047;DHT22;10682;50.874;3.656;2024-02-21T01:11:24;9.00;99.90
21047;DHT22;10682;50.874;3.656;2024-02-21T01:13:51;9.00;99.90
21047;DHT22;10682;50.874;3.656;2024-02-21T01:16:18;9.00;99.90
21047;DHT22;10682;50.874;3.656;2024-02-21T01:18:45;9.10;99.90
21047;DHT22;10682;50.874;3.656;2024-02-21T01:21:13;9.00;99.90
21047;DHT22;10682;50.874;3.656;2024-02-21T01:23:40;9.00;99.90
21047;DHT22;10682;50.874;3.656;2024-02-21T01:26:07;9.00;99.90
21047;DHT22;10682;50.874;3.656;2024-02-21T01:28:36;9.00;99.90
21047;DHT22;10682;50.874;3.656;2024-02-21T01:31:32;9.00;99.90
21047;DHT22;10682;50.874;3.656;2024-02-21T01:34:01;9.00;99.90
21047;DHT22;10682;50.874;3.656;2024-02-21T01:36:39;9.00;99.90
21047;DHT22;10682;50.874;3.656;2024-02-21T01:39:08;8.90;99.90
21047;DHT22;10682;50.874;3.656;2024-02-21T01:41:35;8.90;99.90
21047;DHT22;10682;50.874;3.656;2024-02-21T01:44:02;8.90;99.90
21047;DHT22;10682;50.874;3.656;2024-02-21T01:46:30;8.90;99.90
21047;DHT22;10682;50.874;3.656;2024-02-21T01:48:58;8.90;99.90
21047;DHT22;10682;50.874;3.656;2024-02-21T01:51:25;9.00;99.90
21047;DHT22;10682;50.874;3.656;2024-02-21T01:53:54;8.90;99.90
21047;DHT22;10682;50.874;3.656;2024-02-21T01:56:22;8.90;99.90
21047;DHT22;10682;50.874;3.656;2024-02-21T01:58:51;8.80;99.90
21047;DHT22;10682;50.874;3.656;2024-02-21T02:01:18;8.80;99.90
21047;DHT22;10682;50.874;3.656;2024-02-21T02:03:48;8.70;99.90
21047;DHT22;10682;50.874;3.656;2024-02-21T02:06:16;8.70;99.90
21047;DHT22;10682;50.874;3.656;2024-02-21T02:08:44;8.70;99.90
21047;DHT22;10682;50.874;3.656;2024-02-21T02:11:13;8.70;99.90
21047;DHT22;10682;50.874;3.656;2024-02-21T02:13:42;8.70;99.90
21047;DHT22;10682;50.874;3.656;2024-02-21T02:16:09;8.70;99.90
21047;DHT22;10682;50.874;3.656;2024-02-21T02:18:38;8.70;99.90
21047;DHT22;10682;50.874;3.656;2024-02-21T02:21:13;8.60;99.90
21047;DHT22;10682;50.874;3.656;2024-02-21T02:23:54;8.70;99.90
21047;DHT22;10682;50.874;3.656;2024-02-21T02:26:21;8.60;99.90
21047;DHT22;10682;50.874;3.656;2024-02-21T02:28:49;8.60;99.90
21047;DHT22;10682;50.874;3.656;2024-02-21T02:31:16;8.60;99.90
21047;DHT22;10682;50.874;3.656;2024-02-21T02:33:43;8.60;99.90
21047;DHT22;10682;50.874;3.656;2024-02-21T02:36:11;8.50;99.90
21047;DHT22;10682;50.874;3.656;2024-02-21T02:38:38;8.50;99.90
21047;DHT22;10682;50.874;3.656;2024-02-21T02:41:37;8.60;99.90
21047;DHT22;10682;50.874;3.656;2024-02-21T02:44:04;8.60;99.90
21047;DHT22;10682;50.874;3.656;2024-02-21T02:46:31;8.60;99.90
21047;DHT22;10682;50.874;3.656;2024-02-21T02:48:58;8.60;99.90
21047;DHT22;10682;50.874;3.656;2024-02-21T02:51:26;8.60;99.90
21047;DHT22;10682;50.874;3.656;2024-02-21T02:53:53;8.60;99.90
21047;DHT22;10682;50.874;3.656;2024-02-21T02:56:21;8.60;99.90
21047;DHT22;10682;50.874;3.656;2024-02-21T02:58:49;8.60;99.90
21047;DHT22;10682;50.874;3.656;2024-02-21T03:01:16;8.60;99.90
21047;DHT22;10682;50.874;3.656;2024-02-21T03:03:43;8.60;99.90
21047;DHT22;10682;50.874;3.656;2024-02-21T03:06:12;8.60;99.90
21047;DHT22;10682;50.874;3.656;2024-02-21T03:08:40;8.70;99.90
21047;DHT22;10682;50.874;3.656;2024-02-21T03:11:07;8.70;99.90
21047;DHT22;10682;50.874;3.656;2024-02-21T03:13:35;8.70;99.90
21047;DHT22;10682;50.874;3.656;2024-02-21T03:16:02;8.60;99.90
21047;DHT22;10682;50.874;3.656;2024-02-21T03:18:30;8.60;99.90
21047;DHT22;10682;50.874;3.656;2024-02-21T03:20:57;8.60;99.90
21047;DHT22;10682;50.874;3.656;2024-02-21T03:23:24;8.50;99.90
21047;DHT22;10682;50.874;3.656;2024-02-21T03:25:51;8.50;99.90
21047;DHT22;10682;50.874;3.656;2024-02-21T03:28:18;8.50;99.90
21047;DHT22;10682;50.874;3.656;2024-02-21T03:30:45;8.50;99.90
21047;DHT22;10682;50.874;3.656;2024-02-21T03:33:12;8.50;99.90
21047;DHT22;10682;50.874;3.656;2024-02-21T03:35:40;8.60;99.90
21047;DHT22;10682;50.874;3.656;2024-02-21T03:38:07;8.60;99.90
21047;DHT22;10682;50.874;3.656;2024-02-21T03:40:34;8.60;99.90
21047;DHT22;10682;50.874;3.656;2024-02-21T03:43:01;8.60;99.90
21047;DHT22;10682;50.874;3.656;2024-02-21T03:45:28;8.60;99.90
21047;DHT22;10682;50.874;3.656;2024-02-21T03:47:56;8.60;99.90
21047;DHT22;10682;50.874;3.656;2024-02-21T03:50:23;8.70;99.90
21047;DHT22;10682;50.874;3.656;2024-02-21T03:52:52;8.70;99.90
21047;DHT22;10682;50.874;3.656;2024-02-21T03:55:19;8.70;99.90
21047;DHT22;10682;50.874;3.656;2024-02-21T03:57:47;8.70;99.90
21047;DHT22;10682;50.874;3.656;2024-02-21T04:00:15;8.70;99.90
21047;DHT22;10682;50.874;3.656;2024-02-21T04:02:42;8.70;99.90
21047;DHT22;10682;50.874;3.656;2024-02-21T04:05:09;8.70;99.90
21047;DHT22;10682;50.874;3.656;2024-02-21T04:07:40;8.70;99.90
21047;DHT22;10682;50.874;3.656;2024-02-21T04:10:08;8.80;99.90
21047;DHT22;10682;50.874;3.656;2024-02-21T04:12:35;8.70;99.90
21047;DHT22;10682;50.874;3.656;2024-02-21T04:15:02;8.80;99.90
21047;DHT22;10682;50.874;3.656;2024-02-21T04:17:29;8.80;99.90
21047;DHT22;10682;50.874;3.656;2024-02-21T04:20:05;8.80;99.90
21047;DHT22;10682;50.874;3.656;2024-02-21T04:22:34;8.80;99.90
21047;DHT22;10682;50.874;3.656;2024-02-21T04:25:02;8.90;99.90
21047;DHT22;10682;50.874;3.656;2024-02-21T04:27:29;8.90;99.90
21047;DHT22;10682;50.874;3.656;2024-02-21T04:29:56;8.90;99.90
21047;DHT22;10682;50.874;3.656;2024-02-21T04:32:24;8.90;99.90
21047;DHT22;10682;50.874;3.656;2024-02-21T04:34:54;8.90;99.90
21047;DHT22;10682;50.874;3.656;2024-02-21T04:37:21;8.90;99.90
21047;DHT22;10682;50.874;3.656;2024-02-21T04:39:49;8.90;99.90
21047;DHT22;10682;50.874;3.656;2024-02-21T04:42:16;8.80;99.90
21047;DHT22;10682;50.874;3.656;2024-02-21T04:44:43;8.80;99.90
21047;DHT22;10682;50.874;3.656;2024-02-21T04:47:10;8.80;99.90
21047;DHT22;10682;50.874;3.656;2024-02-21T04:49:38;8.80;99.90
21047;DHT22;10682;50.874;3.656;2024-02-21T04:52:06;8.80;99.90
21047;DHT22;10682;50.874;3.656;2024-02-21T04:54:33;8.80;99.90
21047;DHT22;10682;50.874;3.656;2024-02-21T04:57:02;8.80;99.90
21047;DHT22;10682;50.874;3.656;2024-02-21T04:59:29;8.80;99.90
21047;DHT22;10682;50.874;3.656;2024-02-21T05:01:56;8.80;99.90
21047;DHT22;10682;50.874;3.656;2024-02-21T05:04:24;8.80;99.90
21047;DHT22;10682;50.874;3.656;2024-02-21T05:06:51;8.80;99.90
21047;DHT22;10682;50.874;3.656;2024-02-21T05:09:18;8.80;99.90
21047;DHT22;10682;50.874;3.656;2024-02-21T05:11:46;8.80;99.90
21047;DHT22;10682;50.874;3.656;2024-02-21T05:14:13;8.80;99.90
21047;DHT22;10682;50.874;3.656;2024-02-21T05:16:40;8.70;99.90
21047;DHT22;10682;50.874;3.656;2024-02-21T05:19:08;8.70;99.90
21047;DHT22;10682;50.874;3.656;2024-02-21T05:21:35;8.70;99.90
21047;DHT22;10682;50.874;3.656;2024-02-21T05:24:02;8.70;99.90
21047;DHT22;10682;50.874;3.656;2024-02-21T05:26:29;8.70;99.90
21047;DHT22;10682;50.874;3.656;2024-02-21T05:28:56;8.70;99.90
21047;DHT22;10682;50.874;3.656;2024-02-21T05:31:26;8.70;99.90
21047;DHT22;10682;50.874;3.656;2024-02-21T05:34:21;8.80;99.90
21047;DHT22;10682;50.874;3.656;2024-02-21T05:36:49;8.70;99.90
21047;DHT22;10682;50.874;3.656;2024-02-21T05:39:17;8.70;99.90
21047;DHT22;10682;50.874;3.656;2024-02-21T05:41:44;8.80;99.90
21047;DHT22;10682;50.874;3.656;2024-02-21T05:44:12;8.80;99.90
21047;DHT22;10682;50.874;3.656;2024-02-21T05:46:39;8.80;99.90
21047;DHT22;10682;50.874;3.656;2024-02-21T05:49:06;8.80;99.90
21047;DHT22;10682;50.874;3.656;2024-02-21T05:51:34;8.80;99.90
21047;DHT22;10682;50.874;3.656;2024-02-21T05:54:02;8.80;99.90
21047;DHT22;10682;50.874;3.656;2024-02-21T05:56:29;8.80;99.90
21047;DHT22;10682;50.874;3.656;2024-02-21T05:58:56;8.80;99.90
21047;DHT22;10682;50.874;3.656;2024-02-21T06:01:24;8.80;99.90
21047;DHT22;10682;50.874;3.656;2024-02-21T06:03:52;8.80;99.90
21047;DHT22;10682;50.874;3.656;2024-02-21T06:06:19;8.80;99.90
21047;DHT22;10682;50.874;3.656;2024-02-21T06:08:48;8.80;99.90
21047;DHT22;10682;50.874;3.656;2024-02-21T06:11:15;8.80;99.90
21047;DHT22;10682;50.874;3.656;2024-02-21T06:13:43;8.80;99.90
21047;DHT22;10682;50.874;3.656;2024-02-21T06:16:10;8.80;99.90
21047;DHT22;10682;50.874;3.656;2024-02-21T06:18:37;8.80;99.90
21047;DHT22;10682;50.874;3.656;2024-02-21T06:21:05;8.80;99.90
21047;DHT22;10682;50.874;3.656;2024-02-21T06:23:33;8.80;99.90
21047;DHT22;10682;50.874;3.656;2024-02-21T06:26:00;8.70;99.90
21047;DHT22;10682;50.874;3.656;2024-02-21T06:28:27;8.80;99.90
21047;DHT22;10682;50.874;3.656;2024-02-21T06:30:54;8.80;99.90
21047;DHT22;10682;50.874;3.656;2024-02-21T06:33:21;8.80;99.90
21047;DHT22;10682;50.874;3.656;2024-02-21T06:35:52;8.80;99.90
21047;DHT22;10682;50.874;3.656;2024-02-21T06:38:20;8.90;99.90
21047;DHT22;10682;50.874;3.656;2024-02-21T06:41:01;8.90;99.90
21047;DHT22;10682;50.874;3.656;2024-02-21T06:44:05;8.90;99.90
21047;DHT22;10682;50.874;3.656;2024-02-21T06:46:32;8.90;99.90
21047;DHT22;10682;50.874;3.656;2024-02-21T06:49:03;8.80;99.90
21047;DHT22;10682;50.874;3.656;2024-02-21T06:51:32;8.90;99.90
21047;DHT22;10682;50.874;3.656;2024-02-21T06:54:01;8.90;99.90
21047;DHT22;10682;50.874;3.656;2024-02-21T06:56:28;8.90;99.90
21047;DHT22;10682;50.874;3.656;2024-02-21T06:58:56;8.90;99.90
21047;DHT22;10682;50.874;3.656;2024-02-21T07:01:24;8.90;99.90
21047;DHT22;10682;50.874;3.656;2024-02-21T07:03:51;8.90;99.90
21047;DHT22;10682;50.874;3.656;2024-02-21T07:06:19;8.80;99.90
21047;DHT22;10682;50.874;3.656;2024-02-21T07:08:46;8.80;99.90
21047;DHT22;10682;50.874;3.656;2024-02-21T07:11:13;8.90;99.90
21047;DHT22;10682;50.874;3.656;2024-02-21T07:13:41;8.90;99.90
21047;DHT22;10682;50.874;3.656;2024-02-21T07:16:08;8.90;99.90
21047;DHT22;10682;50.874;3.656;2024-02-21T07:18:35;8.80;99.90
21047;DHT22;10682;50.874;3.656;2024-02-21T07:21:04;8.90;99.90
21047;DHT22;10682;50.874;3.656;2024-02-21T07:23:31;8.90;99.90
21047;DHT22;10682;50.874;3.656;2024-02-21T07:25:58;8.80;99.90
21047;DHT22;10682;50.874;3.656;2024-02-21T07:28:26;8.80;99.90
21047;DHT22;10682;50.874;3.656;2024-02-21T07:30:53;8.80;99.90
21047;DHT22;10682;50.874;3.656;2024-02-21T07:33:20;8.80;99.90
21047;DHT22;10682;50.874;3.656;2024-02-21T07:35:48;8.80;99.90
21047;DHT22;10682;50.874;3.656;2024-02-21T07:38:19;8.80;99.90
21047;DHT22;10682;50.874;3.656;2024-02-21T07:40:46;8.90;99.90
21047;DHT22;10682;50.874;3.656;2024-02-21T07:43:14;8.90;99.90
21047;DHT22;10682;50.874;3.656;2024-02-21T07:45:42;8.90;99.90
21047;DHT22;10682;50.874;3.656;2024-02-21T07:48:09;8.90;99.90
21047;DHT22;10682;50.874;3.656;2024-02-21T07:50:36;8.90;99.90
21047;DHT22;10682;50.874;3.656;2024-02-21T07:53:05;8.90;99.90
21047;DHT22;10682;50.874;3.656;2024-02-21T07:55:32;8.90;99.90
21047;DHT22;10682;50.874;3.656;2024-02-21T07:57:59;8.90;99.90
21047;DHT22;10682;50.874;3.656;2024-02-21T08:00:26;8.90;99.90
21047;DHT22;10682;50.874;3.656;2024-02-21T08:02:53;8.90;99.90
21047;DHT22;10682;50.874;3.656;2024-02-21T08:05:21;8.80;99.90
21047;DHT22;10682;50.874;3.656;2024-02-21T08:07:49;8.80;99.90
21047;DHT22;10682;50.874;3.656;2024-02-21T08:10:17;8.80;99.90
21047;DHT22;10682;50.874;3.656;2024-02-21T08:12:44;8.80;99.90
21047;DHT22;10682;50.874;3.656;2024-02-21T08:15:11;8.80;99.90
21047;DHT22;10682;50.874;3.656;2024-02-21T08:17:39;8.80;99.90
21047;DHT22;10682;50.874;3.656;2024-02-21T08:20:06;8.80;99.90
21047;DHT22;10682;50.874;3.656;2024-02-21T08:22:37;8.80;99.90
21047;DHT22;10682;50.874;3.656;2024-02-21T08:25:37;8.80;99.90
21047;DHT22;10682;50.874;3.656;2024-02-21T08:30:58;8.90;99.90
21047;DHT22;10682;50.874;3.656;2024-02-21T08:33:25;8.90;99.90
21047;DHT22;10682;50.874;3.656;2024-02-21T08:35:54;8.90;99.90
21047;DHT22;10682;50.874;3.656;2024-02-21T08:38:21;8.90;99.90
21047;DHT22;10682;50.874;3.656;2024-02-21T08:40:48;8.90;99.90
21047;DHT22;10682;50.874;3.656;2024-02-21T08:43:16;8.90;99.90
21047;DHT22;10682;50.874;3.656;2024-02-21T08:45:43;8.90;99.90
21047;DHT22;10682;50.874;3.656;2024-02-21T08:48:10;8.90;99.90
21047;DHT22;10682;50.874;3.656;2024-02-21T08:50:37;8.90;99.90
21047;DHT22;10682;50.874;3.656;2024-02-21T08:53:05;8.90;99.90
21047;DHT22;10682;50.874;3.656;2024-02-21T08:55:33;8.90;99.90
21047;DHT22;10682;50.874;3.656;2024-02-21T08:58:02;8.90;99.90
21047;DHT22;10682;50.874;3.656;2024-02-21T09:00:31;8.90;99.90
21047;DHT22;10682;50.874;3.656;2024-02-21T09:02:58;8.90;99.90
21047;DHT22;10682;50.874;3.656;2024-02-21T09:05:25;8.90;99.90
21047;DHT22;10682;50.874;3.656;2024-02-21T09:07:53;9.00;99.90
21047;DHT22;10682;50.874;3.656;2024-02-21T09:10:21;9.00;99.90
21047;DHT22;10682;50.874;3.656;2024-02-21T09:12:48;9.00;99.90
21047;DHT22;10682;50.874;3.656;2024-02-21T09:15:17;9.00;99.90
21047;DHT22;10682;50.874;3.656;2024-02-21T09:17:47;9.10;99.90
21047;DHT22;10682;50.874;3.656;2024-02-21T09:20:14;9.10;99.90
21047;DHT22;10682;50.874;3.656;2024-02-21T09:22:43;9.10;99.90
21047;DHT22;10682;50.874;3.656;2024-02-21T09:25:11;9.10;99.90
21047;DHT22;10682;50.874;3.656;2024-02-21T09:27:38;9.20;99.90
21047;DHT22;10682;50.874;3.656;2024-02-21T09:30:06;9.20;99.90
21047;DHT22;10682;50.874;3.656;2024-02-21T09:32:34;9.30;99.90
21047;DHT22;10682;50.874;3.656;2024-02-21T09:35:02;9.30;99.90
21047;DHT22;10682;50.874;3.656;2024-02-21T09:37:30;9.30;99.90
21047;DHT22;10682;50.874;3.656;2024-02-21T09:39:57;9.40;99.90
21047;DHT22;10682;50.874;3.656;2024-02-21T09:42:37;9.50;99.90
21047;DHT22;10682;50.874;3.656;2024-02-21T09:45:10;9.60;99.90
21047;DHT22;10682;50.874;3.656;2024-02-21T09:50:51;9.70;99.90
21047;DHT22;10682;50.874;3.656;2024-02-21T09:53:20;9.80;99.90
21047;DHT22;10682;50.874;3.656;2024-02-21T09:55:49;9.80;99.90
21047;DHT22;10682;50.874;3.656;2024-02-21T09:58:17;9.80;99.90
21047;DHT22;10682;50.874;3.656;2024-02-21T10:00:44;9.80;99.90
21047;DHT22;10682;50.874;3.656;2024-02-21T10:03:12;9.80;99.90
21047;DHT22;10682;50.874;3.656;2024-02-21T10:05:47;9.70;99.90
21047;DHT22;10682;50.874;3.656;2024-02-21T10:11:29;9.70;99.90
21047;DHT22;10682;50.874;3.656;2024-02-21T10:14:07;9.70;99.90
21047;DHT22;10682;50.874;3.656;2024-02-21T10:16:35;9.70;99.90
21047;DHT22;10682;50.874;3.656;2024-02-21T10:19:04;9.70;99.90
21047;DHT22;10682;50.874;3.656;2024-02-21T10:21:31;9.70;99.90
21047;DHT22;10682;50.874;3.656;2024-02-21T10:23:59;9.70;99.90
21047;DHT22;10682;50.874;3.656;2024-02-21T10:26:26;9.70;99.90
21047;DHT22;10682;50.874;3.656;2024-02-21T10:28:53;9.80;99.90
21047;DHT22;10682;50.874;3.656;2024-02-21T10:31:26;9.80;99.90
21047;DHT22;10682;50.874;3.656;2024-02-21T10:33:55;9.90;99.90
21047;DHT22;10682;50.874;3.656;2024-02-21T10:36:32;9.80;99.90
21047;DHT22;10682;50.874;3.656;2024-02-21T10:39:01;9.90;99.90
21047;DHT22;10682;50.874;3.656;2024-02-21T10:41:30;9.80;99.90
21047;DHT22;10682;50.874;3.656;2024-02-21T10:43:59;9.80;99.90
21047;DHT22;10682;50.874;3.656;2024-02-21T10:46:30;9.90;99.90
21047;DHT22;10682;50.874;3.656;2024-02-21T10:49:10;9.80;99.90
21047;DHT22;10682;50.874;3.656;2024-02-21T10:51:43;9.80;99.90
21047;DHT22;10682;50.874;3.656;2024-02-21T10:57:05;9.90;99.90
21047;DHT22;10682;50.874;3.656;2024-02-21T10:59:34;9.90;99.90
21047;DHT22;10682;50.874;3.656;2024-02-21T11:02:01;9.90;99.90
21047;DHT22;10682;50.874;3.656;2024-02-21T11:04:32;10.00;99.90
21047;DHT22;10682;50.874;3.656;2024-02-21T11:07:07;9.90;99.90
21047;DHT22;10682;50.874;3.656;2024-02-21T11:09:37;9.90;99.90
21047;DHT22;10682;50.874;3.656;2024-02-21T11:12:06;9.80;99.90
21047;DHT22;10682;50.874;3.656;2024-02-21T11:14:34;9.90;99.90
21047;DHT22;10682;50.874;3.656;2024-02-21T11:19:44;9.80;99.90
21047;DHT22;10682;50.874;3.656;2024-02-21T11:22:19;9.90;99.90
21047;DHT22;10682;50.874;3.656;2024-02-21T11:24:50;9.90;99.90
21047;DHT22;10682;50.874;3.656;2024-02-21T11:27:22;10.00;99.90
21047;DHT22;10682;50.874;3.656;2024-02-21T11:29:56;10.00;99.90
21047;DHT22;10682;50.874;3.656;2024-02-21T11:32:25;10.10;99.90
21047;DHT22;10682;50.874;3.656;2024-02-21T11:34:55;10.10;99.90
21047;DHT22;10682;50.874;3.656;2024-02-21T11:37:32;10.10;99.90
21047;DHT22;10682;50.874;3.656;2024-02-21T11:40:01;10.10;99.90
21047;DHT22;10682;50.874;3.656;2024-02-21T11:42:30;10.10;99.90
21047;DHT22;10682;50.874;3.656;2024-02-21T11:44:59;10.00;99.90
21047;DHT22;10682;50.874;3.656;2024-02-21T11:47:32;10.00;99.90
21047;DHT22;10682;50.874;3.656;2024-02-21T11:49:59;10.00;99.90
21047;DHT22;10682;50.874;3.656;2024-02-21T11:52:40;10.00;99.90
21047;DHT22;10682;50.874;3.656;2024-02-21T11:55:07;10.00;99.90
21047;DHT22;10682;50.874;3.656;2024-02-21T11:57:37;10.00;99.90
21047;DHT22;10682;50.874;3.656;2024-02-21T12:02:46;10.00;99.90
21047;DHT22;10682;50.874;3.656;2024-02-21T12:05:13;10.00;99.90
21047;DHT22;10682;50.874;3.656;2024-02-21T12:07:43;10.00;99.90
21047;DHT22;10682;50.874;3.656;2024-02-21T12:10:11;10.10;99.90
21047;DHT22;10682;50.874;3.656;2024-02-21T12:12:39;10.10;99.90
21047;DHT22;10682;50.874;3.656;2024-02-21T12:15:07;10.10;99.90
21047;DHT22;10682;50.874;3.656;2024-02-21T12:17:36;10.10;99.90
21047;DHT22;10682;50.874;3.656;2024-02-21T12:20:05;10.20;99.90
21047;DHT22;10682;50.874;3.656;2024-02-21T12:22:39;10.20;99.90
21047;DHT22;10682;50.874;3.656;2024-02-21T12:25:16;10.20;99.90
21047;DHT22;10682;50.874;3.656;2024-02-21T12:27:46;10.20;99.90
21047;DHT22;10682;50.874;3.656;2024-02-21T12:30:14;10.20;99.90
21047;DHT22;10682;50.874;3.656;2024-02-21T12:32:42;10.20;99.90
21047;DHT22;10682;50.874;3.656;2024-02-21T12:35:11;10.20;99.90
21047;DHT22;10682;50.874;3.656;2024-02-21T12:37:42;10.30;99.90
21047;DHT22;10682;50.874;3.656;2024-02-21T12:40:09;10.30;99.90
21047;DHT22;10682;50.874;3.656;2024-02-21T12:42:37;10.40;99.90
21047;DHT22;10682;50.874;3.656;2024-02-21T12:45:07;10.40;99.90
21047;DHT22;10682;50.874;3.656;2024-02-21T12:47:34;10.50;99.90
21047;DHT22;10682;50.874;3.656;2024-02-21T12:50:02;10.50;99.90
21047;DHT22;10682;50.874;3.656;2024-02-21T12:52:30;10.50;99.90
21047;DHT22;10682;50.874;3.656;2024-02-21T12:54:58;10.60;99.90
21047;DHT22;10682;50.874;3.656;2024-02-21T12:57:26;10.60;99.90
21047;DHT22;10682;50.874;3.656;2024-02-21T12:59:54;10.60;99.90
21047;DHT22;10682;50.874;3.656;2024-02-21T13:02:21;10.50;99.90
21047;DHT22;10682;50.874;3.656;2024-02-21T13:04:49;10.50;99.90
21047;DHT22;10682;50.874;3.656;2024-02-21T13:07:16;10.50;99.90
21047;DHT22;10682;50.874;3.656;2024-02-21T13:09:44;10.40;99.90
21047;DHT22;10682;50.874;3.656;2024-02-21T13:12:12;10.40;99.90
21047;DHT22;10682;50.874;3.656;2024-02-21T13:14:39;10.30;99.90
21047;DHT22;10682;50.874;3.656;2024-02-21T13:17:10;10.30;99.90
21047;DHT22;10682;50.874;3.656;2024-02-21T13:19:37;10.20;99.90
21047;DHT22;10682;50.874;3.656;2024-02-21T13:22:05;10.20;99.90
21047;DHT22;10682;50.874;3.656;2024-02-21T13:24:33;10.10;99.90
21047;DHT22;10682;50.874;3.656;2024-02-21T13:27:00;10.20;99.90
21047;DHT22;10682;50.874;3.656;2024-02-21T13:29:28;10.20;99.90
21047;DHT22;10682;50.874;3.656;2024-02-21T13:32:02;10.10;99.90
21047;DHT22;10682;50.874;3.656;2024-02-21T13:37:40;10.10;99.90
21047;DHT22;10682;50.874;3.656;2024-02-21T13:40:09;10.00;99.90
21047;DHT22;10682;50.874;3.656;2024-02-21T13:42:40;10.00;99.90
21047;DHT22;10682;50.874;3.656;2024-02-21T13:45:07;10.00;99.90
21047;DHT22;10682;50.874;3.656;2024-02-21T13:47:35;9.90;99.90
21047;DHT22;10682;50.874;3.656;2024-02-21T13:50:03;9.90;99.90
21047;DHT22;10682;50.874;3.656;2024-02-21T13:52:31;9.90;99.90
21047;DHT22;10682;50.874;3.656;2024-02-21T13:54:58;9.90;99.90
21047;DHT22;10682;50.874;3.656;2024-02-21T13:57:25;9.80;99.90
21047;DHT22;10682;50.874;3.656;2024-02-21T13:59:52;9.80;99.90
21047;DHT22;10682;50.874;3.656;2024-02-21T14:02:20;9.80;99.90
21047;DHT22;10682;50.874;3.656;2024-02-21T14:04:48;9.80;99.90
21047;DHT22;10682;50.874;3.656;2024-02-21T14:07:15;9.80;99.90
21047;DHT22;10682;50.874;3.656;2024-02-21T14:09:44;9.80;99.90
21047;DHT22;10682;50.874;3.656;2024-02-21T14:12:12;9.80;99.90
21047;DHT22;10682;50.874;3.656;2024-02-21T14:14:39;9.70;99.90
21047;DHT22;10682;50.874;3.656;2024-02-21T14:17:08;9.70;99.90
21047;DHT22;10682;50.874;3.656;2024-02-21T14:19:35;9.70;99.90
21047;DHT22;10682;50.874;3.656;2024-02-21T14:22:02;9.70;99.90
21047;DHT22;10682;50.874;3.656;2024-02-21T14:24:29;9.70;99.90
21047;DHT22;10682;50.874;3.656;2024-02-21T14:26:56;9.60;99.90
21047;DHT22;10682;50.874;3.656;2024-02-21T14:29:23;9.60;99.90
21047;DHT22;10682;50.874;3.656;2024-02-21T14:31:50;9.60;99.90
21047;DHT22;10682;50.874;3.656;2024-02-21T14:34:18;9.60;99.90
21047;DHT22;10682;50.874;3.656;2024-02-21T14:36:47;9.60;99.90
21047;DHT22;10682;50.874;3.656;2024-02-21T14:39:14;9.60;99.90
21047;DHT22;10682;50.874;3.656;2024-02-21T14:41:41;9.60;99.90
21047;DHT22;10682;50.874;3.656;2024-02-21T14:44:10;9.60;99.90
21047;DHT22;10682;50.874;3.656;2024-02-21T14:46:37;9.60;99.90
21047;DHT22;10682;50.874;3.656;2024-02-21T14:49:07;9.60;99.90
21047;DHT22;10682;50.874;3.656;2024-02-21T14:51:34;9.60;99.90
21047;DHT22;10682;50.874;3.656;2024-02-21T14:54:01;9.60;99.90
21047;DHT22;10682;50.874;3.656;2024-02-21T14:56:28;9.60;99.90
21047;DHT22;10682;50.874;3.656;2024-02-21T14:58:55;9.60;99.90
21047;DHT22;10682;50.874;3.656;2024-02-21T15:01:36;9.60;99.90
21047;DHT22;10682;50.874;3.656;2024-02-21T15:04:07;9.60;99.90
21047;DHT22;10682;50.874;3.656;2024-02-21T15:06:35;9.60;99.90
21047;DHT22;10682;50.874;3.656;2024-02-21T15:09:04;9.60;99.90
21047;DHT22;10682;50.874;3.656;2024-02-21T15:11:33;9.60;99.90
21047;DHT22;10682;50.874;3.656;2024-02-21T15:14:28;9.60;99.90
21047;DHT22;10682;50.874;3.656;2024-02-21T15:16:55;9.50;99.90
21047;DHT22;10682;50.874;3.656;2024-02-21T15:19:30;9.50;99.90
21047;DHT22;10682;50.874;3.656;2024-02-21T15:21:59;9.50;99.90
21047;DHT22;10682;50.874;3.656;2024-02-21T15:24:27;9.50;99.90
21047;DHT22;10682;50.874;3.656;2024-02-21T15:26:54;9.50;99.90
21047;DHT22;10682;50.874;3.656;2024-02-21T15:29:21;9.50;99.90
21047;DHT22;10682;50.874;3.656;2024-02-21T15:31:50;9.60;99.90
21047;DHT22;10682;50.874;3.656;2024-02-21T15:34:17;9.60;99.90
21047;DHT22;10682;50.874;3.656;2024-02-21T15:36:45;9.60;99.90
21047;DHT22;10682;50.874;3.656;2024-02-21T15:39:12;9.60;99.90
21047;DHT22;10682;50.874;3.656;2024-02-21T15:41:39;9.60;99.90
21047;DHT22;10682;50.874;3.656;2024-02-21T15:44:07;9.60;99.90
21047;DHT22;10682;50.874;3.656;2024-02-21T15:46:34;9.70;99.90
21047;DHT22;10682;50.874;3.656;2024-02-21T15:49:03;9.70;99.90
21047;DHT22;10682;50.874;3.656;2024-02-21T15:51:35;9.70;99.90
21047;DHT22;10682;50.874;3.656;2024-02-21T15:54:30;9.70;99.90
21047;DHT22;10682;50.874;3.656;2024-02-21T15:56:58;9.70;99.90
21047;DHT22;10682;50.874;3.656;2024-02-21T15:59:25;9.70;99.90
21047;DHT22;10682;50.874;3.656;2024-02-21T16:01:52;9.70;99.90
21047;DHT22;10682;50.874;3.656;2024-02-21T16:04:19;9.70;99.90
21047;DHT22;10682;50.874;3.656;2024-02-21T16:06:46;9.70;99.90
21047;DHT22;10682;50.874;3.656;2024-02-21T16:09:18;9.70;99.90
21047;DHT22;10682;50.874;3.656;2024-02-21T16:11:45;9.70;99.90
21047;DHT22;10682;50.874;3.656;2024-02-21T16:14:13;9.70;99.90
21047;DHT22;10682;50.874;3.656;2024-02-21T16:16:41;9.70;99.90